Aérodrome :







RETROUVEZ-NOUS SUR...

 
LOGIN :

S'inscrire | Disclaimer

   EN    FR    IT 

 









Légende :    VFR   VFR Marginal   IFR   IFR Intensif   IFR Très Intensif
Visi : 
Plafond : 
>= 8 km
>= 3000ft
5 à 8 km
1000 à 3000 ft
1500m à 5 km
500 à 1000 ft
800 à 1500m
200 à 500 ft
< 800m
< 200 ft
Symboles :   Orages  Brouillard  Fortes neiges  Fortes précipitations  Vent > 20 kt






- Altitude de l'aérodrome : 72 ft
- Code IATA : YDF


CYDF - Deer Lake

DERNIER METAR :
  • 020700Z 04010KT 12SM OVC006 02/01 A3017 RMK ST8 SLP218

METARs EXPIRÉS :
  • 020600Z 01004KT 12SM -DZ OVC005 02/01 A3017 RMK ST8 SLP220
  • 020500Z 03006KT 10SM -DZ OVC005 02/01 A3018 RMK ST8 SLP221

TAF TAF CYDF
Valide du 02 à 02h jusqu'au 02 à 14h UTC


020138Z 0202/0214 04010KT P6SM OVC010
TEMPO 0202/0204 4SM -DZ BR BKN005 OVC010
FM020400 04010KT 2SM -DZ BR OVC005
TEMPO 0204/0213 6SM BR OVC008
FM021300 04012G22KT P6SM OVC010
TEMPO 0213/0214 21/2SM -DZ BR BKN006 OVC010 RMK NXT FCST BY 020800Z



MET'MAP, la Météo Aéronautique d'un coup d'oeil ! - Copyright ORBIFLY Décembre 2007 - Disclaimer

ORBIFLY MET'MAP TEAM :

Programmation & Développement : Alexandra Zaïnal
Sur une idée originale de : Baudouin d'Aumeries
Assistance à la programmation : Marc-Olivier Méhu
Soutien technique & logistique : Manuel Goepfert

Contact : metmap@orbifly.com




SOURCES & CREDITS :

   NOAA